createdAt,value
2018-08-13T00:01:39.304Z,19.80
2018-08-13T00:04:10.784Z,19.90
2018-08-13T00:06:41.787Z,20.00
2018-08-13T00:09:12.796Z,20.00
2018-08-13T00:11:43.826Z,20.00
2018-08-13T00:14:14.676Z,20.10
2018-08-13T00:16:45.657Z,19.90
2018-08-13T00:19:17.084Z,19.70
2018-08-13T00:21:48.064Z,19.80
2018-08-13T00:24:19.077Z,19.90
2018-08-13T00:26:50.013Z,19.70
2018-08-13T00:29:20.984Z,19.60
2018-08-13T00:31:51.914Z,19.50
2018-08-13T00:34:22.845Z,19.50
2018-08-13T00:36:53.744Z,19.30
2018-08-13T00:39:24.736Z,19.40
2018-08-13T00:41:55.700Z,19.40
2018-08-13T00:44:26.724Z,19.40
2018-08-13T00:46:57.820Z,19.30
2018-08-13T00:49:29.225Z,19.30
2018-08-13T00:52:00.345Z,19.10
2018-08-13T00:54:31.287Z,19.20
2018-08-13T00:57:02.245Z,19.40
2018-08-13T00:59:33.174Z,19.50
2018-08-13T01:02:03.971Z,19.60
2018-08-13T01:04:34.974Z,19.40
2018-08-13T01:07:06.304Z,19.30
2018-08-13T01:09:37.158Z,19.30
2018-08-13T01:12:08.136Z,19.20
2018-08-13T01:14:39.104Z,19.10
2018-08-13T01:17:10.125Z,18.80
2018-08-13T01:19:41.040Z,19.00
2018-08-13T01:22:12.037Z,19.20
2018-08-13T01:24:42.944Z,19.30
2018-08-13T01:27:17.895Z,19.00
2018-08-13T01:29:48.828Z,18.90
2018-08-13T01:32:19.776Z,19.00
2018-08-13T01:34:50.644Z,18.90
2018-08-13T01:37:21.584Z,18.90
2018-08-13T01:39:52.565Z,18.90
2018-08-13T01:42:23.589Z,19.00
2018-08-13T01:44:54.525Z,18.90
2018-08-13T01:47:25.525Z,19.00
2018-08-13T01:49:56.424Z,19.00
2018-08-13T01:52:27.443Z,19.00
2018-08-13T01:54:58.328Z,18.90
2018-08-13T01:57:29.224Z,18.90
2018-08-13T02:00:00.165Z,18.90
2018-08-13T02:02:31.586Z,18.70
2018-08-13T02:05:02.443Z,18.80
2018-08-13T02:07:33.495Z,18.80
2018-08-13T02:10:04.644Z,18.70
2018-08-13T02:12:35.604Z,18.80
2018-08-13T02:15:07.615Z,18.80
2018-08-13T02:17:38.603Z,19.10
2018-08-13T02:20:10.603Z,18.90
2018-08-13T02:22:41.576Z,18.90
2018-08-13T02:25:12.564Z,18.80
2018-08-13T02:27:43.636Z,18.70
2018-08-13T02:30:14.596Z,18.80
2018-08-13T02:32:45.696Z,19.00
2018-08-13T02:35:16.676Z,18.80
2018-08-13T02:37:48.736Z,18.60
2018-08-13T02:40:19.729Z,18.60
2018-08-13T02:42:50.787Z,18.70
2018-08-13T02:45:21.768Z,18.50
2018-08-13T02:47:52.796Z,18.40
2018-08-13T02:50:23.797Z,18.20
2018-08-13T02:52:54.856Z,18.30
2018-08-13T02:55:25.772Z,18.10
2018-08-13T02:57:57.229Z,18.20
2018-08-13T03:00:28.244Z,18.00
2018-08-13T03:02:59.260Z,18.10
2018-08-13T03:05:30.188Z,17.90
2018-08-13T03:08:01.276Z,17.80
2018-08-13T03:10:32.287Z,17.70
2018-08-13T03:13:03.310Z,17.70
2018-08-13T03:15:34.312Z,17.80
2018-08-13T03:18:05.356Z,17.80
2018-08-13T03:20:36.329Z,17.80
2018-08-13T03:23:07.840Z,17.90
2018-08-13T03:25:38.795Z,17.70
2018-08-13T03:28:09.991Z,17.50
2018-08-13T03:30:40.938Z,17.60
2018-08-13T03:33:12.349Z,17.80
2018-08-13T03:35:43.259Z,17.60
2018-08-13T03:38:14.257Z,17.70
2018-08-13T03:40:45.136Z,17.50
2018-08-13T03:43:16.136Z,17.70
2018-08-13T03:45:46.992Z,17.80
2018-08-13T03:48:17.888Z,17.80
2018-08-13T03:50:48.796Z,17.80
2018-08-13T03:53:19.841Z,17.80
2018-08-13T03:55:50.676Z,17.90
2018-08-13T03:58:21.736Z,17.80
2018-08-13T04:00:52.736Z,17.80
2018-08-13T04:03:24.317Z,17.70
2018-08-13T04:05:55.215Z,17.70
2018-08-13T04:08:26.171Z,17.80
2018-08-13T04:10:57.076Z,17.80
2018-08-13T04:13:28.396Z,17.90
2018-08-13T04:15:59.328Z,17.80
2018-08-13T04:18:30.272Z,17.70
2018-08-13T04:21:01.216Z,17.70
2018-08-13T04:23:32.368Z,17.70
2018-08-13T04:26:03.892Z,17.60
2018-08-13T04:28:35.148Z,17.70
2018-08-13T04:31:06.324Z,17.70
2018-08-13T04:33:37.511Z,17.60
2018-08-13T04:36:08.695Z,17.60
2018-08-13T04:38:39.769Z,17.60
2018-08-13T04:41:10.809Z,17.60
2018-08-13T04:43:41.759Z,17.50
2018-08-13T04:46:13.297Z,17.50
2018-08-13T04:48:44.244Z,17.60
2018-08-13T04:51:15.116Z,17.60
2018-08-13T04:53:46.099Z,17.60
2018-08-13T04:56:17.031Z,17.50
2018-08-13T04:58:47.995Z,17.20
2018-08-13T05:01:18.869Z,17.30
2018-08-13T05:03:49.906Z,17.30
2018-08-13T05:06:20.827Z,17.30
2018-08-13T05:08:51.718Z,17.30
2018-08-13T05:11:23.409Z,17.30
2018-08-13T05:13:54.375Z,17.30
2018-08-13T05:16:25.328Z,17.40
2018-08-13T05:18:56.316Z,17.40
2018-08-13T05:21:27.236Z,17.50
2018-08-13T05:23:58.270Z,17.60
2018-08-13T05:26:29.224Z,17.80
2018-08-13T05:29:00.490Z,17.80
2018-08-13T05:31:31.356Z,18.00
2018-08-13T05:34:02.296Z,17.90
2018-08-13T05:36:33.257Z,17.80
2018-08-13T05:39:05.528Z,18.00
2018-08-13T05:41:36.354Z,18.30
2018-08-13T05:44:07.659Z,18.10
2018-08-13T05:46:38.668Z,18.30
2018-08-13T05:49:09.643Z,18.40
2018-08-13T05:51:40.496Z,18.60
2018-08-13T05:54:11.470Z,18.50
2018-08-13T05:56:42.461Z,18.70
2018-08-13T05:59:13.537Z,18.60
2018-08-13T06:01:44.508Z,18.60
2018-08-13T06:04:15.538Z,18.50
2018-08-13T06:06:46.944Z,18.60
2018-08-13T06:09:17.961Z,18.60
2018-08-13T06:11:48.889Z,18.80
2018-08-13T06:14:20.153Z,18.70
2018-08-13T06:16:51.376Z,18.60
2018-08-13T06:19:22.300Z,18.80
2018-08-13T06:21:53.313Z,18.90
2018-08-13T06:24:24.352Z,18.90
2018-08-13T06:26:55.344Z,18.80
2018-08-13T06:29:26.353Z,18.90
2018-08-13T06:31:57.218Z,19.10
2018-08-13T06:34:28.433Z,19.10
2018-08-13T06:36:59.317Z,19.00
2018-08-13T06:39:30.169Z,19.00
2018-08-13T06:42:01.067Z,19.00
2018-08-13T06:44:31.917Z,19.10
2018-08-13T06:47:02.794Z,19.30
2018-08-13T06:49:33.769Z,19.40
2018-08-13T06:52:04.677Z,19.60
2018-08-13T06:54:35.556Z,19.70
2018-08-13T06:57:07.537Z,20.00
2018-08-13T06:59:38.576Z,20.10
2018-08-13T07:02:09.830Z,20.20
2018-08-13T07:04:40.737Z,20.30
2018-08-13T07:07:11.577Z,20.40
2018-08-13T07:09:42.600Z,20.40
2018-08-13T07:12:13.700Z,20.50
2018-08-13T07:14:44.897Z,20.60
2018-08-13T07:17:16.045Z,20.60
2018-08-13T07:19:47.176Z,20.70
2018-08-13T07:22:18.359Z,20.80
2018-08-13T07:24:49.354Z,21.10
2018-08-13T07:27:20.292Z,21.10
2018-08-13T07:29:51.641Z,21.10
2018-08-13T07:32:22.624Z,21.20
2018-08-13T07:34:53.518Z,21.30
2018-08-13T07:37:24.597Z,21.40
2018-08-13T07:39:55.509Z,21.60
2018-08-13T07:42:26.377Z,21.60
2018-08-13T07:44:57.371Z,21.80
2018-08-13T07:47:28.397Z,21.90
2018-08-13T07:49:59.376Z,21.90
2018-08-13T07:52:30.311Z,22.10
2018-08-13T07:55:01.269Z,22.20
2018-08-13T07:57:32.188Z,22.10
2018-08-13T08:00:03.212Z,22.10
2018-08-13T08:02:34.132Z,22.30
2018-08-13T08:05:05.728Z,22.30
2018-08-13T08:07:36.676Z,22.50
2018-08-13T08:10:11.077Z,22.50
2018-08-13T08:12:42.451Z,22.60
2018-08-13T08:15:17.017Z,22.70
2018-08-13T08:17:47.941Z,22.70
2018-08-13T08:20:18.929Z,22.80
2018-08-13T08:22:49.878Z,23.00
2018-08-13T08:25:22.211Z,23.20
2018-08-13T08:27:53.177Z,23.30
2018-08-13T08:30:24.173Z,23.30
2018-08-13T08:32:55.176Z,23.40
2018-08-13T08:35:26.157Z,23.40
2018-08-13T08:37:57.729Z,23.70
2018-08-13T08:40:28.862Z,23.70
2018-08-13T08:42:59.742Z,23.90
2018-08-13T08:45:31.558Z,23.80
2018-08-13T08:48:02.636Z,23.90
2018-08-13T08:50:33.616Z,24.10
2018-08-13T08:53:04.849Z,24.20
2018-08-13T08:55:35.917Z,24.30
2018-08-13T08:58:07.054Z,24.30
2018-08-13T09:00:38.225Z,24.60
2018-08-13T09:03:09.517Z,24.60
2018-08-13T09:05:40.587Z,24.50
2018-08-13T09:08:11.648Z,24.60
2018-08-13T09:10:42.738Z,24.70
2018-08-13T09:13:13.681Z,24.90
2018-08-13T09:15:44.659Z,25.10
2018-08-13T09:18:32.032Z,25.10
2018-08-13T09:21:19.681Z,25.00
2018-08-13T09:24:07.070Z,24.50
2018-08-13T09:26:54.692Z,24.20
2018-08-13T09:30:45.708Z,24.00
2018-08-13T09:33:33.224Z,23.80
2018-08-13T09:36:04.179Z,23.60
2018-08-13T09:38:35.297Z,23.50
2018-08-13T09:41:06.377Z,23.40
2018-08-13T09:43:37.709Z,23.60
2018-08-13T09:46:08.915Z,24.20
2018-08-13T09:48:40.057Z,24.60
2018-08-13T09:51:11.093Z,25.00
2018-08-13T09:53:42.335Z,24.90
2018-08-13T09:56:13.430Z,24.60
2018-08-13T09:58:44.432Z,24.30
2018-08-13T10:01:15.371Z,24.00
2018-08-13T10:03:46.403Z,23.70
2018-08-13T10:06:17.369Z,23.40
2018-08-13T10:08:48.400Z,23.30
2018-08-13T10:11:19.466Z,23.40
2018-08-13T10:13:50.487Z,24.10
2018-08-13T10:16:21.504Z,24.90
2018-08-13T10:18:52.662Z,25.50
2018-08-13T10:21:23.717Z,25.90
2018-08-13T10:23:54.744Z,26.10
2018-08-13T10:26:25.790Z,26.30
2018-08-13T10:28:56.776Z,26.30
2018-08-13T10:31:27.827Z,25.90
2018-08-13T10:33:58.997Z,25.90
2018-08-13T10:36:29.937Z,26.30
2018-08-13T10:39:00.960Z,27.00
2018-08-13T10:41:32.077Z,27.20
2018-08-13T10:44:04.096Z,27.30
2018-08-13T10:46:35.209Z,27.70
2018-08-13T10:49:06.287Z,27.90
2018-08-13T10:51:37.336Z,28.20
2018-08-13T10:54:09.229Z,28.00
2018-08-13T10:56:40.233Z,27.70
2018-08-13T10:59:11.307Z,27.40
2018-08-13T11:01:42.213Z,26.70
2018-08-13T11:04:13.276Z,26.30
2018-08-13T11:06:44.266Z,25.90
2018-08-13T11:09:15.575Z,25.80
2018-08-13T11:11:46.536Z,25.70
2018-08-13T11:14:17.937Z,25.50
2018-08-13T11:16:48.810Z,25.80
2018-08-13T11:19:19.916Z,25.90
2018-08-13T11:21:51.016Z,25.80
2018-08-13T11:24:28.597Z,25.90
2018-08-13T11:26:59.573Z,26.70
2018-08-13T11:29:30.557Z,27.70
2018-08-13T11:32:01.967Z,28.20
2018-08-13T11:34:33.528Z,28.50
2018-08-13T11:37:04.538Z,28.60
2018-08-13T11:39:35.500Z,28.10
2018-08-13T11:42:06.517Z,27.50
2018-08-13T11:44:37.465Z,27.00
2018-08-13T11:47:08.335Z,26.50
2018-08-13T11:49:39.305Z,26.20
2018-08-13T11:52:10.217Z,25.90
2018-08-13T11:54:41.078Z,25.70
2018-08-13T11:57:11.997Z,25.70
2018-08-13T11:59:42.983Z,25.70
2018-08-13T12:02:14.038Z,26.70
2018-08-13T12:04:45.237Z,27.90
2018-08-13T12:07:16.073Z,28.60
2018-08-13T12:09:47.023Z,29.00
2018-08-13T12:12:17.977Z,28.90
2018-08-13T12:14:49.937Z,28.50
2018-08-13T12:17:20.737Z,28.40
2018-08-13T12:19:51.677Z,28.60
2018-08-13T12:22:22.589Z,29.20
2018-08-13T12:24:53.480Z,29.50
2018-08-13T12:27:24.397Z,29.80
2018-08-13T12:29:55.452Z,30.40
2018-08-13T12:32:26.420Z,30.30
2018-08-13T12:34:57.336Z,30.60
2018-08-13T12:37:28.340Z,30.40
2018-08-13T12:39:59.418Z,30.60
2018-08-13T12:42:30.426Z,30.80
2018-08-13T12:45:01.590Z,31.00
2018-08-13T12:47:32.672Z,31.10
2018-08-13T12:50:03.597Z,30.90
2018-08-13T12:52:34.457Z,31.00
2018-08-13T12:55:07.213Z,31.20
2018-08-13T12:57:38.265Z,31.30
2018-08-13T13:00:16.796Z,31.50
2018-08-13T13:02:47.797Z,31.60
2018-08-13T13:05:19.997Z,31.40
2018-08-13T13:07:50.941Z,31.40
2018-08-13T13:10:21.937Z,31.50
2018-08-13T13:12:52.849Z,31.30
2018-08-13T13:15:23.897Z,31.20
2018-08-13T13:17:54.778Z,30.70
2018-08-13T13:20:25.750Z,30.80
2018-08-13T13:22:56.669Z,31.40
2018-08-13T13:25:28.197Z,31.40
2018-08-13T13:27:59.180Z,30.70
2018-08-13T13:30:30.145Z,30.10
2018-08-13T13:33:01.124Z,29.70
2018-08-13T13:35:32.129Z,30.30
2018-08-13T13:38:03.158Z,30.20
2018-08-13T13:40:34.285Z,30.30
2018-08-13T13:43:05.824Z,29.60
2018-08-13T13:45:37.058Z,29.30
2018-08-13T13:48:09.177Z,29.00
2018-08-13T13:50:40.715Z,28.80
2018-08-13T13:53:12.022Z,28.80
2018-08-13T13:55:43.297Z,28.80
2018-08-13T13:58:14.472Z,28.80
2018-08-13T14:00:45.443Z,28.90
2018-08-13T14:03:16.257Z,28.80
2018-08-13T14:05:47.176Z,28.50
2018-08-13T14:08:18.123Z,28.40
2018-08-13T14:10:49.077Z,28.40
2018-08-13T14:13:19.998Z,28.20
2018-08-13T14:15:51.069Z,28.30
2018-08-13T14:18:22.077Z,28.10
2018-08-13T14:20:53.200Z,27.90
2018-08-13T14:23:24.117Z,27.70
2018-08-13T14:25:55.099Z,27.70
2018-08-13T14:28:26.048Z,27.70
2018-08-13T14:30:56.977Z,27.50
2018-08-13T14:33:27.795Z,27.40
2018-08-13T14:35:58.775Z,27.20
2018-08-13T14:38:29.716Z,27.40
2018-08-13T14:41:00.697Z,27.30
2018-08-13T14:43:31.702Z,27.40
2018-08-13T14:46:02.611Z,27.40
2018-08-13T14:48:33.665Z,27.40
2018-08-13T14:51:05.025Z,27.30
2018-08-13T14:53:36.117Z,27.10
2018-08-13T14:56:07.809Z,26.90
2018-08-13T14:58:39.112Z,26.70
2018-08-13T15:01:10.155Z,26.40
2018-08-13T15:03:41.089Z,26.10
2018-08-13T15:06:12.186Z,25.80
2018-08-13T15:08:43.187Z,25.20
2018-08-13T15:11:14.344Z,24.70
2018-08-13T15:13:45.518Z,24.30
2018-08-13T15:16:16.600Z,24.30
2018-08-13T15:18:47.630Z,24.10
2018-08-13T15:21:18.639Z,24.00
2018-08-13T15:23:49.633Z,23.80
2018-08-13T15:26:20.676Z,23.60
2018-08-13T15:28:51.638Z,23.60
2018-08-13T15:31:22.701Z,23.60
2018-08-13T15:33:53.590Z,23.30
2018-08-13T15:36:24.664Z,23.20
2018-08-13T15:38:55.650Z,23.10
2018-08-13T15:41:26.637Z,22.90
2018-08-13T15:43:57.617Z,22.80
2018-08-13T15:46:28.648Z,22.90
2018-08-13T15:48:59.478Z,22.90
2018-08-13T15:51:30.446Z,22.60
2018-08-13T15:54:01.440Z,22.70
2018-08-13T15:56:32.489Z,22.70
2018-08-13T15:59:04.539Z,22.50
2018-08-13T16:01:35.452Z,22.50
2018-08-13T16:04:06.379Z,22.30
2018-08-13T16:06:38.777Z,22.40
2018-08-13T16:09:09.789Z,22.20
2018-08-13T16:11:40.778Z,22.10
2018-08-13T16:14:12.890Z,22.00
2018-08-13T16:16:43.813Z,21.80
2018-08-13T16:19:14.877Z,21.90
2018-08-13T16:21:45.945Z,21.80
2018-08-13T16:24:17.050Z,21.80
2018-08-13T16:26:48.305Z,21.70
2018-08-13T16:29:19.411Z,21.60
2018-08-13T16:31:50.391Z,21.50
2018-08-13T16:34:21.418Z,21.30
2018-08-13T16:36:52.389Z,21.30
2018-08-13T16:39:23.237Z,21.10
2018-08-13T16:41:54.201Z,20.90
2018-08-13T16:44:25.057Z,21.00
2018-08-13T16:46:55.990Z,21.00
2018-08-13T16:49:27.573Z,21.20
2018-08-13T16:51:58.635Z,21.10
2018-08-13T16:54:29.607Z,21.20
2018-08-13T16:57:00.739Z,21.30
2018-08-13T16:59:31.730Z,19.90
2018-08-13T17:02:02.932Z,19.60
2018-08-13T17:04:33.869Z,19.50
2018-08-13T17:07:04.789Z,19.40
2018-08-13T17:09:35.685Z,19.20
2018-08-13T17:12:07.024Z,18.90
2018-08-13T17:14:38.137Z,19.30
2018-08-13T17:17:09.981Z,18.80
2018-08-13T17:19:41.002Z,18.80
2018-08-13T17:22:12.118Z,18.70
2018-08-13T17:24:43.180Z,18.60
2018-08-13T17:27:14.409Z,18.30
2018-08-13T17:29:45.408Z,18.20
2018-08-13T17:32:17.073Z,18.20
2018-08-13T17:34:48.133Z,18.40
2018-08-13T17:37:19.829Z,18.70
2018-08-13T17:39:51.479Z,19.20
2018-08-13T17:42:24.428Z,18.90
2018-08-13T17:44:55.441Z,19.10
2018-08-13T17:47:26.773Z,18.70
2018-08-13T17:49:57.957Z,18.30
2018-08-13T17:52:30.197Z,18.40
2018-08-13T17:55:01.149Z,18.40
2018-08-13T17:57:33.165Z,18.50
2018-08-13T18:00:04.337Z,18.30
2018-08-13T18:02:35.415Z,18.20
2018-08-13T18:05:09.597Z,17.90
2018-08-13T18:07:40.672Z,18.20
2018-08-13T18:10:16.039Z,18.30
2018-08-13T18:12:47.398Z,18.20
2018-08-13T18:15:18.597Z,18.10
2018-08-13T18:17:49.911Z,18.00
2018-08-13T18:20:20.997Z,17.80
2018-08-13T18:22:52.078Z,17.80
2018-08-13T18:25:23.530Z,17.80
2018-08-13T18:27:55.890Z,17.80
2018-08-13T18:30:28.755Z,17.70
2018-08-13T18:32:59.816Z,17.70
2018-08-13T18:35:30.900Z,17.60
2018-08-13T18:38:02.914Z,17.80
2018-08-13T18:40:35.738Z,17.70
2018-08-13T18:43:06.924Z,17.80
2018-08-13T18:45:38.019Z,17.90
2018-08-13T18:48:09.483Z,17.90
2018-08-13T18:50:41.033Z,18.10
2018-08-13T18:53:13.067Z,18.10
2018-08-13T18:55:44.704Z,18.00
2018-08-13T18:58:16.437Z,17.80
2018-08-13T19:00:55.073Z,17.90
2018-08-13T19:03:26.234Z,17.80
2018-08-13T19:05:57.942Z,17.80
2018-08-13T19:08:29.286Z,17.70
2018-08-13T19:11:02.309Z,17.90
2018-08-13T19:13:34.438Z,17.70
2018-08-13T19:16:07.799Z,17.90
2018-08-13T19:18:39.330Z,17.70
2018-08-13T19:21:10.516Z,17.80
2018-08-13T19:23:42.330Z,17.80
2018-08-13T19:26:14.740Z,17.90
2018-08-13T19:28:49.571Z,17.90
2018-08-13T19:31:21.193Z,17.80
2018-08-13T19:33:52.288Z,17.90
2018-08-13T19:36:23.374Z,17.70
2018-08-13T19:38:55.792Z,17.60
2018-08-13T19:41:26.709Z,17.60
2018-08-13T19:43:59.054Z,17.70
2018-08-13T19:49:14.310Z,17.80
2018-08-13T19:51:48.390Z,17.70
2018-08-13T19:54:20.923Z,17.80
2018-08-13T19:56:54.149Z,17.70
2018-08-13T19:59:27.515Z,17.60
2018-08-13T20:01:59.469Z,17.50
2018-08-13T20:04:31.091Z,17.70
2018-08-13T20:07:03.483Z,17.80
2018-08-13T20:09:34.957Z,18.00
2018-08-13T20:12:06.801Z,18.20
2018-08-13T20:14:37.835Z,18.00
2018-08-13T20:17:09.293Z,17.90
2018-08-13T20:19:40.548Z,17.80
2018-08-13T20:22:16.618Z,17.80
2018-08-13T20:24:47.712Z,18.00
2018-08-13T20:27:19.812Z,17.90
2018-08-13T20:29:50.859Z,17.80
2018-08-13T20:32:22.031Z,18.10
2018-08-13T20:34:53.589Z,18.20
2018-08-13T20:37:24.610Z,18.20
2018-08-13T20:39:55.712Z,18.00
2018-08-13T20:42:27.549Z,18.00
2018-08-13T20:44:59.357Z,17.80
2018-08-13T20:47:30.353Z,17.60
2018-08-13T20:50:03.391Z,17.60
2018-08-13T20:52:34.357Z,17.80
2018-08-13T20:55:05.972Z,17.80
2018-08-13T20:57:36.930Z,17.90
2018-08-13T21:00:11.371Z,17.90
2018-08-13T21:02:43.297Z,17.90
2018-08-13T21:05:14.277Z,17.80
2018-08-13T21:07:46.197Z,17.70
2018-08-13T21:10:19.398Z,17.60
2018-08-13T21:12:50.816Z,17.60
2018-08-13T21:15:21.937Z,17.60
2018-08-13T21:17:53.018Z,17.60
2018-08-13T21:20:29.031Z,17.60
2018-08-13T21:23:00.110Z,17.70
2018-08-13T21:25:31.142Z,17.60
2018-08-13T21:28:02.058Z,17.60
2018-08-13T21:30:32.977Z,17.70
2018-08-13T21:33:03.829Z,17.70
2018-08-13T21:35:34.836Z,17.70
2018-08-13T21:38:05.842Z,17.80
2018-08-13T21:40:36.817Z,17.90
2018-08-13T21:43:07.738Z,17.70
2018-08-13T21:45:38.737Z,17.90
2018-08-13T21:48:10.201Z,17.70
2018-08-13T21:50:41.196Z,17.80
2018-08-13T21:53:12.298Z,17.80
2018-08-13T21:55:43.346Z,17.90
2018-08-13T21:58:19.869Z,18.10
2018-08-13T22:01:08.197Z,18.10
2018-08-13T22:03:44.818Z,18.20
2018-08-13T22:06:21.389Z,18.40
2018-08-13T22:08:57.821Z,18.40
2018-08-13T22:11:34.237Z,18.20
2018-08-13T22:14:11.438Z,17.80
2018-08-13T22:16:47.928Z,17.70
2018-08-13T22:19:24.558Z,17.60
2018-08-13T22:22:00.961Z,17.70
2018-08-13T22:24:53.737Z,17.70
2018-08-13T22:27:30.357Z,17.90
2018-08-13T22:30:09.477Z,18.20
2018-08-13T22:32:46.025Z,18.10
2018-08-13T22:35:22.569Z,17.80
2018-08-13T22:37:59.517Z,17.90
2018-08-13T22:40:36.227Z,17.80
2018-08-13T22:43:12.749Z,17.70
2018-08-13T22:45:49.090Z,17.50
2018-08-13T22:48:25.847Z,17.50
2018-08-13T22:51:02.441Z,17.40
2018-08-13T22:53:38.917Z,17.40
2018-08-13T22:56:15.458Z,17.50
2018-08-13T22:58:52.191Z,17.60
2018-08-13T23:01:29.012Z,17.50
2018-08-13T23:04:05.580Z,17.40
2018-08-13T23:06:42.220Z,17.40
2018-08-13T23:09:18.668Z,17.50
2018-08-13T23:11:55.301Z,17.60
2018-08-13T23:14:31.738Z,17.70
2018-08-13T23:17:08.476Z,17.80
2018-08-13T23:19:45.077Z,18.00
2018-08-13T23:22:48.199Z,18.20
2018-08-13T23:25:24.637Z,17.70
2018-08-13T23:28:02.761Z,17.60
2018-08-13T23:30:39.320Z,17.50
2018-08-13T23:33:15.920Z,17.40
2018-08-13T23:35:52.519Z,17.30
2018-08-13T23:38:28.975Z,17.30
2018-08-13T23:41:05.570Z,17.30
2018-08-13T23:43:42.199Z,17.20
2018-08-13T23:46:18.658Z,17.20
2018-08-13T23:48:55.149Z,17.20
2018-08-13T23:51:31.545Z,17.30
2018-08-13T23:54:07.969Z,17.50
2018-08-13T23:56:44.457Z,17.30
2018-08-13T23:59:21.059Z,17.30
